6R3

Cleveland Municipal Airport

Cleveland, Texas, USA
METAR K6R3 171435Z AUTO 22005KT 10SM BKN015 29/24 A3010 RMK AO2 T02900241
Observed Flight Rules
Aug-17 @ 14:35 UTC (21 minutes ago) Marginal Visual Flight Rules
Wind Visibility Clouds
220° at 5 knots 10 miles
  • Broken at 1,500' AGL
Temperatures Readings
Current 29°C / 84°F
Dewpoint 24°C / 75°F
Humidity 74%
Altimeter 30.1" Hg
Pressure 1019 hPa
Elevation 46
METAR K6R3 171435Z AUTO 22005KT 10SM BKN015 29/24 A3010 RMK AO2 T02900241
Observed Flight Rules
Aug-17 @ 14:35 UTC
(21 minutes ago)
MVFR
Wind Visibility
220° at 5 knots 10 miles
Clouds
  • Broken at 1,500' AGL
Temperature Dewpoint
29°C / 84°F 24°C / 75°F
Humidity Altimeter Pressure
74% 30.1" Hg 1019 hPa